sensor_id;sensor_type;location;lat;lon;timestamp;pressure;altitude;pressure_sealevel;temperature;humidity
84116;BME280;74211;52.234;9.860;2023-12-20T00:01:29;100531.19;;;7.12;94.29
84116;BME280;74211;52.234;9.860;2023-12-20T00:03:59;100520.19;;;7.10;94.09
84116;BME280;74211;52.234;9.860;2023-12-20T00:06:29;100526.19;;;7.11;94.13
84116;BME280;74211;52.234;9.860;2023-12-20T00:09:02;100531.34;;;7.11;94.52
84116;BME280;74211;52.234;9.860;2023-12-20T00:11:32;100542.88;;;7.08;94.30
84116;BME280;74211;52.234;9.860;2023-12-20T00:14:02;100529.56;;;7.11;93.05
84116;BME280;74211;52.234;9.860;2023-12-20T00:16:32;100528.44;;;7.14;93.48
84116;BME280;74211;52.234;9.860;2023-12-20T00:19:02;100535.91;;;7.09;92.92
84116;BME280;74211;52.234;9.860;2023-12-20T00:21:32;100530.56;;;7.10;91.98
84116;BME280;74211;52.234;9.860;2023-12-20T00:24:05;100529.63;;;7.03;92.02
84116;BME280;74211;52.234;9.860;2023-12-20T00:26:36;100542.75;;;7.02;92.26
84116;BME280;74211;52.234;9.860;2023-12-20T00:29:03;100538.56;;;7.01;92.19
84116;BME280;74211;52.234;9.860;2023-12-20T00:31:33;100543.25;;;6.97;92.56
84116;BME280;74211;52.234;9.860;2023-12-20T00:34:03;100534.19;;;6.93;92.20
84116;BME280;74211;52.234;9.860;2023-12-20T00:36:33;100543.94;;;6.91;92.03
84116;BME280;74211;52.234;9.860;2023-12-20T00:39:06;100551.06;;;6.89;92.47
84116;BME280;74211;52.234;9.860;2023-12-20T00:41:36;100532.31;;;6.71;92.62
84116;BME280;74211;52.234;9.860;2023-12-20T00:44:06;100550.47;;;6.71;91.24
84116;BME280;74211;52.234;9.860;2023-12-20T00:46:33;100556.00;;;6.68;91.07
84116;BME280;74211;52.234;9.860;2023-12-20T00:49:04;100561.53;;;6.65;91.06
84116;BME280;74211;52.234;9.860;2023-12-20T00:51:34;100548.09;;;6.53;91.39
84116;BME280;74211;52.234;9.860;2023-12-20T00:54:06;100555.72;;;6.46;91.42
84116;BME280;74211;52.234;9.860;2023-12-20T00:56:36;100555.56;;;6.40;91.44
84116;BME280;74211;52.234;9.860;2023-12-20T00:59:06;100558.97;;;6.32;91.46
84116;BME280;74211;52.234;9.860;2023-12-20T01:01:36;100531.16;;;6.18;91.35
84116;BME280;74211;52.234;9.860;2023-12-20T01:04:07;100551.88;;;6.26;91.41
84116;BME280;74211;52.234;9.860;2023-12-20T01:06:37;100553.66;;;6.25;91.42
84116;BME280;74211;52.234;9.860;2023-12-20T01:09:09;100548.94;;;6.21;92.32
84116;BME280;74211;52.234;9.860;2023-12-20T01:11:39;100544.25;;;6.16;92.07
84116;BME280;74211;52.234;9.860;2023-12-20T01:14:09;100545.53;;;6.12;91.60
84116;BME280;74211;52.234;9.860;2023-12-20T01:16:39;100545.91;;;6.09;92.02
84116;BME280;74211;52.234;9.860;2023-12-20T01:19:10;100529.06;;;5.97;91.21
84116;BME280;74211;52.234;9.860;2023-12-20T01:21:40;100545.25;;;6.07;91.80
84116;BME280;74211;52.234;9.860;2023-12-20T01:24:13;100548.66;;;6.08;90.78
84116;BME280;74211;52.234;9.860;2023-12-20T01:26:43;100546.69;;;6.02;90.93
84116;BME280;74211;52.234;9.860;2023-12-20T01:29:13;100541.84;;;5.90;91.39
84116;BME280;74211;52.234;9.860;2023-12-20T01:31:43;100542.81;;;5.89;90.55
84116;BME280;74211;52.234;9.860;2023-12-20T01:34:14;100551.09;;;5.93;90.47
84116;BME280;74211;52.234;9.860;2023-12-20T01:36:44;100558.84;;;5.93;90.30
84116;BME280;74211;52.234;9.860;2023-12-20T01:39:17;100546.22;;;5.90;90.44
84116;BME280;74211;52.234;9.860;2023-12-20T01:41:55;100551.56;;;5.88;89.85
84116;BME280;74211;52.234;9.860;2023-12-20T01:44:25;100531.13;;;5.69;90.29
84116;BME280;74211;52.234;9.860;2023-12-20T01:46:56;100523.38;;;5.69;89.98
84116;BME280;74211;52.234;9.860;2023-12-20T01:49:26;100550.72;;;5.88;89.90
84116;BME280;74211;52.234;9.860;2023-12-20T01:51:56;100563.53;;;5.89;89.44
84116;BME280;74211;52.234;9.860;2023-12-20T01:54:30;100564.84;;;5.94;88.70
84116;BME280;74211;52.234;9.860;2023-12-20T01:57:01;100569.16;;;5.85;89.81
84116;BME280;74211;52.234;9.860;2023-12-20T01:59:31;100557.06;;;5.94;88.88
84116;BME280;74211;52.234;9.860;2023-12-20T02:02:03;100560.94;;;5.98;89.33
84116;BME280;74211;52.234;9.860;2023-12-20T02:04:33;100569.22;;;5.93;90.00
84116;BME280;74211;52.234;9.860;2023-12-20T02:07:04;100564.78;;;5.85;89.55
84116;BME280;74211;52.234;9.860;2023-12-20T02:09:38;100565.91;;;5.83;89.80
84116;BME280;74211;52.234;9.860;2023-12-20T02:12:08;100549.91;;;5.71;90.18
84116;BME280;74211;52.234;9.860;2023-12-20T02:14:37;100571.59;;;5.86;89.06
84116;BME280;74211;52.234;9.860;2023-12-20T02:17:07;100568.03;;;5.87;88.82
84116;BME280;74211;52.234;9.860;2023-12-20T02:19:38;100562.41;;;5.92;88.43
84116;BME280;74211;52.234;9.860;2023-12-20T02:22:11;100566.41;;;5.86;88.77
84116;BME280;74211;52.234;9.860;2023-12-20T02:24:41;100567.69;;;5.82;88.22
84116;BME280;74211;52.234;9.860;2023-12-20T02:27:12;100568.97;;;5.70;89.00
84116;BME280;74211;52.234;9.860;2023-12-20T02:29:42;100561.84;;;5.64;88.42
84116;BME280;74211;52.234;9.860;2023-12-20T02:32:12;100561.03;;;5.64;87.66
84116;BME280;74211;52.234;9.860;2023-12-20T02:34:42;100551.50;;;5.56;87.22
84116;BME280;74211;52.234;9.860;2023-12-20T02:37:15;100538.38;;;5.57;86.41
84116;BME280;74211;52.234;9.860;2023-12-20T02:39:45;100515.22;;;5.40;86.81
84116;BME280;74211;52.234;9.860;2023-12-20T02:42:15;100517.81;;;5.32;87.88
84116;BME280;74211;52.234;9.860;2023-12-20T02:44:45;100538.34;;;5.41;87.04
84116;BME280;74211;52.234;9.860;2023-12-20T02:47:15;100543.03;;;5.30;87.32
84116;BME280;74211;52.234;9.860;2023-12-20T02:49:45;100539.00;;;5.35;86.58
84116;BME280;74211;52.234;9.860;2023-12-20T02:52:18;100536.25;;;5.37;86.16
84116;BME280;74211;52.234;9.860;2023-12-20T02:54:48;100541.25;;;5.38;86.09
84116;BME280;74211;52.234;9.860;2023-12-20T02:57:18;100537.38;;;5.34;86.55
84116;BME280;74211;52.234;9.860;2023-12-20T02:59:49;100537.69;;;5.31;86.51
84116;BME280;74211;52.234;9.860;2023-12-20T03:02:18;100529.78;;;5.33;86.47
84116;BME280;74211;52.234;9.860;2023-12-20T03:04:48;100531.09;;;5.37;86.59
84116;BME280;74211;52.234;9.860;2023-12-20T03:07:21;100533.81;;;5.35;86.02
84116;BME280;74211;52.234;9.860;2023-12-20T03:09:51;100524.25;;;5.28;86.84
84116;BME280;74211;52.234;9.860;2023-12-20T03:12:41;100527.97;;;5.25;86.56
84116;BME280;74211;52.234;9.860;2023-12-20T03:15:11;100519.41;;;5.16;86.53
84116;BME280;74211;52.234;9.860;2023-12-20T03:17:41;100505.16;;;5.12;86.56
84116;BME280;74211;52.234;9.860;2023-12-20T03:20:12;100514.06;;;5.26;86.21
84116;BME280;74211;52.234;9.860;2023-12-20T03:22:44;100518.13;;;5.29;86.10
84116;BME280;74211;52.234;9.860;2023-12-20T03:25:14;100522.97;;;5.32;85.28
84116;BME280;74211;52.234;9.860;2023-12-20T03:27:44;100512.75;;;5.22;85.92
84116;BME280;74211;52.234;9.860;2023-12-20T03:30:15;100514.06;;;5.18;86.23
84116;BME280;74211;52.234;9.860;2023-12-20T03:32:46;100508.84;;;5.10;86.96
84116;BME280;74211;52.234;9.860;2023-12-20T03:35:16;100503.19;;;5.06;86.95
84116;BME280;74211;52.234;9.860;2023-12-20T03:37:49;100498.31;;;5.03;86.96
84116;BME280;74211;52.234;9.860;2023-12-20T03:40:18;100481.19;;;5.02;87.65
84116;BME280;74211;52.234;9.860;2023-12-20T03:42:49;100487.03;;;4.96;88.22
84116;BME280;74211;52.234;9.860;2023-12-20T03:45:19;100481.50;;;4.91;88.32
84116;BME280;74211;52.234;9.860;2023-12-20T03:47:49;100481.53;;;4.99;88.56
84116;BME280;74211;52.234;9.860;2023-12-20T03:50:22;100492.84;;;5.06;88.83
84116;BME280;74211;52.234;9.860;2023-12-20T03:52:55;100488.69;;;5.13;88.96
84116;BME280;74211;52.234;9.860;2023-12-20T03:55:25;100490.81;;;5.18;88.22
84116;BME280;74211;52.234;9.860;2023-12-20T03:57:55;100490.16;;;5.16;88.49
84116;BME280;74211;52.234;9.860;2023-12-20T04:00:25;100464.06;;;5.01;88.52
84116;BME280;74211;52.234;9.860;2023-12-20T04:02:55;100485.13;;;5.22;87.76
84116;BME280;74211;52.234;9.860;2023-12-20T04:05:23;100484.81;;;5.26;88.03
84116;BME280;74211;52.234;9.860;2023-12-20T04:07:55;100488.91;;;5.36;87.09
84116;BME280;74211;52.234;9.860;2023-12-20T04:10:25;100469.81;;;5.37;87.20
84116;BME280;74211;52.234;9.860;2023-12-20T04:12:55;100477.56;;;5.45;86.67
84116;BME280;74211;52.234;9.860;2023-12-20T04:15:25;100480.00;;;5.47;86.51
84116;BME280;74211;52.234;9.860;2023-12-20T04:17:55;100482.91;;;5.44;87.07
84116;BME280;74211;52.234;9.860;2023-12-20T04:20:25;100460.09;;;5.31;86.58
84116;BME280;74211;52.234;9.860;2023-12-20T04:22:58;100480.66;;;5.49;86.09
84116;BME280;74211;52.234;9.860;2023-12-20T04:25:28;100481.63;;;5.48;86.72
84116;BME280;74211;52.234;9.860;2023-12-20T04:27:58;100482.63;;;5.55;86.12
84116;BME280;74211;52.234;9.860;2023-12-20T04:30:28;100495.22;;;5.66;85.40
84116;BME280;74211;52.234;9.860;2023-12-20T04:32:59;100485.19;;;5.71;85.34
84116;BME280;74211;52.234;9.860;2023-12-20T04:35:29;100486.81;;;5.72;85.53
84116;BME280;74211;52.234;9.860;2023-12-20T04:38:02;100484.88;;;5.74;85.46
84116;BME280;74211;52.234;9.860;2023-12-20T04:40:32;100472.59;;;5.68;85.59
84116;BME280;74211;52.234;9.860;2023-12-20T04:43:02;100472.25;;;5.71;86.28
84116;BME280;74211;52.234;9.860;2023-12-20T04:45:32;100473.06;;;5.72;85.13
84116;BME280;74211;52.234;9.860;2023-12-20T04:48:03;100469.03;;;5.69;85.62
84116;BME280;74211;52.234;9.860;2023-12-20T04:50:34;100463.97;;;5.76;84.86
84116;BME280;74211;52.234;9.860;2023-12-20T04:53:06;100469.81;;;5.78;85.45
84116;BME280;74211;52.234;9.860;2023-12-20T04:55:36;100462.03;;;5.78;84.76
84116;BME280;74211;52.234;9.860;2023-12-20T04:58:06;100468.03;;;5.78;84.85
84116;BME280;74211;52.234;9.860;2023-12-20T05:00:36;100458.00;;;5.75;85.30
84116;BME280;74211;52.234;9.860;2023-12-20T05:03:07;100469.16;;;5.76;84.71
84116;BME280;74211;52.234;9.860;2023-12-20T05:05:37;100462.72;;;5.72;85.73
84116;BME280;74211;52.234;9.860;2023-12-20T05:08:10;100466.13;;;5.72;85.49
84116;BME280;74211;52.234;9.860;2023-12-20T05:10:40;100466.78;;;5.74;85.00
84116;BME280;74211;52.234;9.860;2023-12-20T05:13:10;100475.16;;;5.76;84.58
84116;BME280;74211;52.234;9.860;2023-12-20T05:15:41;100460.44;;;5.77;85.26
84116;BME280;74211;52.234;9.860;2023-12-20T05:18:12;100462.56;;;5.73;85.41
84116;BME280;74211;52.234;9.860;2023-12-20T05:20:42;100459.00;;;5.74;85.67
84116;BME280;74211;52.234;9.860;2023-12-20T05:23:15;100456.41;;;5.74;85.40
84116;BME280;74211;52.234;9.860;2023-12-20T05:25:47;100439.28;;;5.73;84.37
84116;BME280;74211;52.234;9.860;2023-12-20T05:28:17;100453.47;;;5.85;84.70
84116;BME280;74211;52.234;9.860;2023-12-20T05:30:47;100463.69;;;5.87;84.12
84116;BME280;74211;52.234;9.860;2023-12-20T05:33:18;100456.72;;;5.87;84.53
84116;BME280;74211;52.234;9.860;2023-12-20T05:35:48;100455.63;;;5.90;84.69
84116;BME280;74211;52.234;9.860;2023-12-20T05:38:20;100452.72;;;5.93;84.78
84116;BME280;74211;52.234;9.860;2023-12-20T05:40:50;100441.06;;;5.89;83.97
84116;BME280;74211;52.234;9.860;2023-12-20T05:43:21;100456.88;;;6.02;83.45
84116;BME280;74211;52.234;9.860;2023-12-20T05:45:51;100460.59;;;6.00;84.62
84116;BME280;74211;52.234;9.860;2023-12-20T05:48:21;100453.16;;;6.05;84.10
84116;BME280;74211;52.234;9.860;2023-12-20T05:50:51;100446.69;;;6.01;83.78
84116;BME280;74211;52.234;9.860;2023-12-20T05:53:23;100449.94;;;6.03;84.64
84116;BME280;74211;52.234;9.860;2023-12-20T05:55:53;100462.06;;;5.94;85.47
84116;BME280;74211;52.234;9.860;2023-12-20T05:58:24;100442.16;;;5.86;85.86
84116;BME280;74211;52.234;9.860;2023-12-20T06:00:54;100447.03;;;5.89;85.50
84116;BME280;74211;52.234;9.860;2023-12-20T06:03:24;100448.50;;;5.92;85.83
84116;BME280;74211;52.234;9.860;2023-12-20T06:05:54;100450.91;;;5.85;85.81
84116;BME280;74211;52.234;9.860;2023-12-20T06:08:41;100461.91;;;5.87;86.33
84116;BME280;74211;52.234;9.860;2023-12-20T06:11:12;100465.78;;;5.83;86.73
84116;BME280;74211;52.234;9.860;2023-12-20T06:13:42;100459.16;;;5.73;87.38
84116;BME280;74211;52.234;9.860;2023-12-20T06:16:12;100459.47;;;5.62;88.27
84116;BME280;74211;52.234;9.860;2023-12-20T06:18:42;100445.09;;;5.51;88.99
84116;BME280;74211;52.234;9.860;2023-12-20T06:21:13;100452.84;;;5.43;89.35
84116;BME280;74211;52.234;9.860;2023-12-20T06:23:45;100449.75;;;5.39;89.13
84116;BME280;74211;52.234;9.860;2023-12-20T06:26:15;100446.19;;;5.40;89.24
84116;BME280;74211;52.234;9.860;2023-12-20T06:28:46;100452.34;;;5.39;89.22
84116;BME280;74211;52.234;9.860;2023-12-20T06:31:16;100448.66;;;5.50;88.61
84116;BME280;74211;52.234;9.860;2023-12-20T06:33:46;100453.50;;;5.53;87.95
84116;BME280;74211;52.234;9.860;2023-12-20T06:36:24;100453.81;;;5.58;87.33
84116;BME280;74211;52.234;9.860;2023-12-20T06:38:57;100449.28;;;5.60;87.27
84116;BME280;74211;52.234;9.860;2023-12-20T06:41:28;100450.59;;;5.56;87.39
84116;BME280;74211;52.234;9.860;2023-12-20T06:43:58;100454.63;;;5.58;87.21
84116;BME280;74211;52.234;9.860;2023-12-20T06:46:28;100448.47;;;5.51;86.83
84116;BME280;74211;52.234;9.860;2023-12-20T06:48:57;100455.13;;;5.54;86.98
84116;BME280;74211;52.234;9.860;2023-12-20T06:51:28;100437.66;;;5.48;86.91
84116;BME280;74211;52.234;9.860;2023-12-20T06:54:00;100441.84;;;5.49;87.08
84116;BME280;74211;52.234;9.860;2023-12-20T06:56:30;100447.19;;;5.55;87.07
84116;BME280;74211;52.234;9.860;2023-12-20T06:59:00;100453.19;;;5.56;87.05
84116;BME280;74211;52.234;9.860;2023-12-20T07:01:31;100424.88;;;5.54;86.98
84116;BME280;74211;52.234;9.860;2023-12-20T07:04:01;100430.19;;;5.45;87.13
84116;BME280;74211;52.234;9.860;2023-12-20T07:06:31;100433.13;;;5.50;87.60
84116;BME280;74211;52.234;9.860;2023-12-20T07:09:04;100427.78;;;5.43;88.16
84116;BME280;74211;52.234;9.860;2023-12-20T07:11:35;100438.94;;;5.52;87.69
84116;BME280;74211;52.234;9.860;2023-12-20T07:14:04;100445.88;;;5.60;87.13
84116;BME280;74211;52.234;9.860;2023-12-20T07:16:35;100437.97;;;5.53;87.13
84116;BME280;74211;52.234;9.860;2023-12-20T07:19:05;100427.13;;;5.49;86.83
84116;BME280;74211;52.234;9.860;2023-12-20T07:21:35;100436.50;;;5.58;86.95
84116;BME280;74211;52.234;9.860;2023-12-20T07:24:08;100420.34;;;5.56;86.25
84116;BME280;74211;52.234;9.860;2023-12-20T07:26:38;100441.53;;;5.68;86.04
84116;BME280;74211;52.234;9.860;2023-12-20T07:29:08;100420.00;;;5.76;84.78
84116;BME280;74211;52.234;9.860;2023-12-20T07:31:38;100433.28;;;5.73;85.38
84116;BME280;74211;52.234;9.860;2023-12-20T07:34:08;100437.47;;;5.66;85.46
84116;BME280;74211;52.234;9.860;2023-12-20T07:36:38;100437.16;;;5.61;85.85
84116;BME280;74211;52.234;9.860;2023-12-20T07:39:11;100435.22;;;5.63;85.33
84116;BME280;74211;52.234;9.860;2023-12-20T07:41:41;100437.00;;;5.70;84.63
84116;BME280;74211;52.234;9.860;2023-12-20T07:44:12;100437.50;;;5.74;85.10
84116;BME280;74211;52.234;9.860;2023-12-20T07:46:42;100431.00;;;5.78;84.82
84116;BME280;74211;52.234;9.860;2023-12-20T07:49:13;100437.47;;;5.82;84.51
84116;BME280;74211;52.234;9.860;2023-12-20T07:51:43;100439.88;;;5.83;84.54
84116;BME280;74211;52.234;9.860;2023-12-20T07:54:16;100433.28;;;5.89;84.03
84116;BME280;74211;52.234;9.860;2023-12-20T07:56:46;100428.59;;;5.93;83.93
84116;BME280;74211;52.234;9.860;2023-12-20T07:59:16;100424.56;;;5.90;83.99
84116;BME280;74211;52.234;9.860;2023-12-20T08:01:58;100437.97;;;5.94;84.01
84116;BME280;74211;52.234;9.860;2023-12-20T08:04:28;100436.34;;;6.01;83.34
84116;BME280;74211;52.234;9.860;2023-12-20T08:06:58;100438.94;;;6.01;83.27
84116;BME280;74211;52.234;9.860;2023-12-20T08:09:31;100433.09;;;5.99;83.90
84116;BME280;74211;52.234;9.860;2023-12-20T08:12:01;100431.16;;;6.01;84.21
84116;BME280;74211;52.234;9.860;2023-12-20T08:14:31;100427.91;;;5.99;84.45
84116;BME280;74211;52.234;9.860;2023-12-20T08:17:03;100417.25;;;6.02;83.78
84116;BME280;74211;52.234;9.860;2023-12-20T08:19:33;100433.41;;;6.04;83.58
84116;BME280;74211;52.234;9.860;2023-12-20T08:22:04;100432.28;;;6.06;83.57
84116;BME280;74211;52.234;9.860;2023-12-20T08:24:36;100434.84;;;6.14;83.91
84116;BME280;74211;52.234;9.860;2023-12-20T08:27:06;100443.41;;;6.15;83.63
84116;BME280;74211;52.234;9.860;2023-12-20T08:29:36;100439.03;;;6.15;83.52
84116;BME280;74211;52.234;9.860;2023-12-20T08:32:06;100440.66;;;6.16;83.79
84116;BME280;74211;52.234;9.860;2023-12-20T08:34:36;100436.63;;;6.14;83.74
84116;BME280;74211;52.234;9.860;2023-12-20T08:37:06;100416.59;;;6.08;83.72
84116;BME280;74211;52.234;9.860;2023-12-20T08:39:39;100428.25;;;6.12;85.12
84116;BME280;74211;52.234;9.860;2023-12-20T08:42:12;100422.91;;;6.05;84.60
84116;BME280;74211;52.234;9.860;2023-12-20T08:44:42;100409.47;;;6.10;84.01
84116;BME280;74211;52.234;9.860;2023-12-20T08:47:12;100414.94;;;6.15;83.62
84116;BME280;74211;52.234;9.860;2023-12-20T08:49:43;100410.41;;;6.17;83.55
84116;BME280;74211;52.234;9.860;2023-12-20T08:52:14;100406.19;;;6.24;83.62
84116;BME280;74211;52.234;9.860;2023-12-20T08:54:47;100391.78;;;6.21;83.24
84116;BME280;74211;52.234;9.860;2023-12-20T08:57:19;100379.31;;;6.17;83.14
84116;BME280;74211;52.234;9.860;2023-12-20T08:59:50;100397.09;;;6.28;83.25
84116;BME280;74211;52.234;9.860;2023-12-20T09:02:20;100381.56;;;6.28;83.80
84116;BME280;74211;52.234;9.860;2023-12-20T09:04:50;100396.56;;;6.33;83.20
84116;BME280;74211;52.234;9.860;2023-12-20T09:07:23;100390.59;;;6.32;83.22
84116;BME280;74211;52.234;9.860;2023-12-20T09:09:57;100386.84;;;6.35;83.17
84116;BME280;74211;52.234;9.860;2023-12-20T09:12:28;100384.91;;;6.37;83.39
84116;BME280;74211;52.234;9.860;2023-12-20T09:14:58;100383.47;;;6.34;83.02
84116;BME280;74211;52.234;9.860;2023-12-20T09:17:29;100390.59;;;6.32;83.96
84116;BME280;74211;52.234;9.860;2023-12-20T09:19:59;100387.56;;;6.29;85.12
84116;BME280;74211;52.234;9.860;2023-12-20T09:22:30;100374.78;;;6.27;84.39
84116;BME280;74211;52.234;9.860;2023-12-20T09:25:04;100359.50;;;6.32;84.00
84116;BME280;74211;52.234;9.860;2023-12-20T09:27:35;100359.81;;;6.37;84.29
84116;BME280;74211;52.234;9.860;2023-12-20T09:30:06;100364.66;;;6.40;83.42
84116;BME280;74211;52.234;9.860;2023-12-20T09:32:36;100353.63;;;6.46;83.59
84116;BME280;74211;52.234;9.860;2023-12-20T09:35:08;100356.38;;;6.45;83.30
84116;BME280;74211;52.234;9.860;2023-12-20T09:37:38;100352.69;;;6.39;83.54
84116;BME280;74211;52.234;9.860;2023-12-20T09:40:18;100347.84;;;6.36;83.60
84116;BME280;74211;52.234;9.860;2023-12-20T09:42:54;100340.72;;;6.38;83.42
84116;BME280;74211;52.234;9.860;2023-12-20T09:45:26;100341.19;;;6.42;82.85
84116;BME280;74211;52.234;9.860;2023-12-20T09:47:58;100335.38;;;6.32;83.13
84116;BME280;74211;52.234;9.860;2023-12-20T09:50:28;100347.91;;;6.51;82.03
84116;BME280;74211;52.234;9.860;2023-12-20T09:53:01;100343.69;;;6.58;82.73
84116;BME280;74211;52.234;9.860;2023-12-20T09:55:35;100343.84;;;6.56;81.90
84116;BME280;74211;52.234;9.860;2023-12-20T09:58:07;100336.84;;;6.65;81.17
84116;BME280;74211;52.234;9.860;2023-12-20T10:00:37;100331.50;;;6.67;80.57
84116;BME280;74211;52.234;9.860;2023-12-20T10:03:08;100329.00;;;6.73;80.80
84116;BME280;74211;52.234;9.860;2023-12-20T10:05:39;100329.94;;;6.80;80.66
84116;BME280;74211;52.234;9.860;2023-12-20T10:08:12;100315.19;;;6.81;80.09
84116;BME280;74211;52.234;9.860;2023-12-20T10:10:45;100327.81;;;6.84;80.07
84116;BME280;74211;52.234;9.860;2023-12-20T10:13:15;100329.59;;;6.83;80.48
84116;BME280;74211;52.234;9.860;2023-12-20T10:15:45;100331.72;;;6.80;81.19
84116;BME280;74211;52.234;9.860;2023-12-20T10:18:16;100320.72;;;6.78;81.63
84116;BME280;74211;52.234;9.860;2023-12-20T10:20:46;100330.63;;;6.74;81.88
84116;BME280;74211;52.234;9.860;2023-12-20T10:23:17;100317.34;;;6.69;81.77
84116;BME280;74211;52.234;9.860;2023-12-20T10:25:58;100276.69;;;6.70;81.99
84116;BME280;74211;52.234;9.860;2023-12-20T10:28:33;100306.19;;;6.69;82.24
84116;BME280;74211;52.234;9.860;2023-12-20T10:31:04;100292.50;;;6.60;83.29
84116;BME280;74211;52.234;9.860;2023-12-20T10:33:35;100308.34;;;6.65;82.42
84116;BME280;74211;52.234;9.860;2023-12-20T10:36:06;100301.59;;;6.79;82.94
84116;BME280;74211;52.234;9.860;2023-12-20T10:38:38;100295.72;;;6.85;82.41
84116;BME280;74211;52.234;9.860;2023-12-20T10:41:14;100298.56;;;6.90;82.20
84116;BME280;74211;52.234;9.860;2023-12-20T10:43:45;100309.53;;;7.00;82.54
84116;BME280;74211;52.234;9.860;2023-12-20T10:46:16;100288.06;;;7.06;81.67
84116;BME280;74211;52.234;9.860;2023-12-20T10:48:46;100301.59;;;7.02;81.91
84116;BME280;74211;52.234;9.860;2023-12-20T10:51:17;100314.44;;;6.95;82.35
84116;BME280;74211;52.234;9.860;2023-12-20T10:53:48;100277.28;;;6.80;81.21
84116;BME280;74211;52.234;9.860;2023-12-20T10:56:21;100286.53;;;6.97;81.67
84116;BME280;74211;52.234;9.860;2023-12-20T10:58:51;100283.59;;;7.00;80.78
84116;BME280;74211;52.234;9.860;2023-12-20T11:01:22;100295.59;;;7.01;80.91
84116;BME280;74211;52.234;9.860;2023-12-20T11:03:53;100272.88;;;7.03;81.18
84116;BME280;74211;52.234;9.860;2023-12-20T11:06:29;100277.44;;;7.01;81.54
84116;BME280;74211;52.234;9.860;2023-12-20T11:09:10;100276.81;;;6.99;81.19
84116;BME280;74211;52.234;9.860;2023-12-20T11:11:57;100284.75;;;6.98;81.83
84116;BME280;74211;52.234;9.860;2023-12-20T11:14:37;100269.22;;;6.75;84.53
84116;BME280;74211;52.234;9.860;2023-12-20T11:17:09;100280.25;;;6.69;86.58
84116;BME280;74211;52.234;9.860;2023-12-20T11:20:03;100262.94;;;6.46;86.15
84116;BME280;74211;52.234;9.860;2023-12-20T11:22:34;100276.16;;;6.51;87.61
84116;BME280;74211;52.234;9.860;2023-12-20T11:25:09;100280.28;;;6.46;88.22
84116;BME280;74211;52.234;9.860;2023-12-20T11:27:43;100277.69;;;6.46;88.38
84116;BME280;74211;52.234;9.860;2023-12-20T11:30:16;100270.88;;;6.45;88.63
84116;BME280;74211;52.234;9.860;2023-12-20T11:32:46;100265.41;;;6.40;88.35
84116;BME280;74211;52.234;9.860;2023-12-20T11:35:17;100276.41;;;6.42;88.08
84116;BME280;74211;52.234;9.860;2023-12-20T11:37:48;100268.16;;;6.38;88.48
84116;BME280;74211;52.234;9.860;2023-12-20T11:40:18;100266.56;;;6.37;87.82
84116;BME280;74211;52.234;9.860;2023-12-20T11:42:51;100275.13;;;6.38;89.01
84116;BME280;74211;52.234;9.860;2023-12-20T11:45:24;100278.69;;;6.37;88.62
84116;BME280;74211;52.234;9.860;2023-12-20T11:47:57;100269.16;;;6.37;89.45
84116;BME280;74211;52.234;9.860;2023-12-20T11:50:28;100268.16;;;6.38;88.52
84116;BME280;74211;52.234;9.860;2023-12-20T11:52:58;100274.63;;;6.42;88.51
84116;BME280;74211;52.234;9.860;2023-12-20T11:55:28;100265.06;;;6.43;88.49
84116;BME280;74211;52.234;9.860;2023-12-20T11:58:00;100272.69;;;6.44;89.21
84116;BME280;74211;52.234;9.860;2023-12-20T12:00:32;100264.59;;;6.39;88.79
84116;BME280;74211;52.234;9.860;2023-12-20T12:03:02;100285.31;;;6.39;88.81
84116;BME280;74211;52.234;9.860;2023-12-20T12:05:32;100342.72;;;6.28;90.40
84116;BME280;74211;52.234;9.860;2023-12-20T12:08:04;100326.53;;;5.63;87.43
84116;BME280;74211;52.234;9.860;2023-12-20T12:10:35;100301.88;;;5.11;89.06
84116;BME280;74211;52.234;9.860;2023-12-20T12:13:08;100292.53;;;4.94;88.42
84116;BME280;74211;52.234;9.860;2023-12-20T12:15:39;100290.59;;;4.80;89.96
84116;BME280;74211;52.234;9.860;2023-12-20T12:18:09;100275.41;;;4.77;89.30
84116;BME280;74211;52.234;9.860;2023-12-20T12:20:39;100297.50;;;4.71;88.86
84116;BME280;74211;52.234;9.860;2023-12-20T12:23:10;100287.19;;;4.63;90.71
84116;BME280;74211;52.234;9.860;2023-12-20T12:25:40;100282.47;;;4.59;89.85
84116;BME280;74211;52.234;9.860;2023-12-20T12:28:12;100284.41;;;4.57;90.70
84116;BME280;74211;52.234;9.860;2023-12-20T12:30:42;100264.38;;;4.42;90.55
84116;BME280;74211;52.234;9.860;2023-12-20T12:33:21;100277.44;;;4.49;91.13
84116;BME280;74211;52.234;9.860;2023-12-20T12:35:51;100287.63;;;4.50;90.22
84116;BME280;74211;52.234;9.860;2023-12-20T12:38:25;100257.13;;;4.54;90.44
84116;BME280;74211;52.234;9.860;2023-12-20T12:40:56;100256.19;;;4.63;89.85
84116;BME280;74211;52.234;9.860;2023-12-20T12:43:30;100256.66;;;4.67;88.81
84116;BME280;74211;52.234;9.860;2023-12-20T12:46:02;100269.91;;;4.72;88.50
84116;BME280;74211;52.234;9.860;2023-12-20T12:48:33;100258.28;;;4.76;87.91
84116;BME280;74211;52.234;9.860;2023-12-20T12:51:04;100264.88;;;4.86;85.74
84116;BME280;74211;52.234;9.860;2023-12-20T12:53:39;100229.53;;;4.71;85.82
84116;BME280;74211;52.234;9.860;2023-12-20T12:56:09;100253.75;;;4.78;84.80
84116;BME280;74211;52.234;9.860;2023-12-20T12:58:42;100255.84;;;4.74;83.82
84116;BME280;74211;52.234;9.860;2023-12-20T13:01:12;100261.03;;;4.74;84.00
84116;BME280;74211;52.234;9.860;2023-12-20T13:03:42;100251.47;;;4.83;83.27
84116;BME280;74211;52.234;9.860;2023-12-20T13:06:12;100252.44;;;4.90;84.08
84116;BME280;74211;52.234;9.860;2023-12-20T13:08:42;100259.25;;;4.91;84.44
84116;BME280;74211;52.234;9.860;2023-12-20T13:11:12;100254.41;;;4.96;85.33
84116;BME280;74211;52.234;9.860;2023-12-20T13:13:45;100256.81;;;4.98;85.77
84116;BME280;74211;52.234;9.860;2023-12-20T13:16:17;100259.53;;;5.04;86.02
84116;BME280;74211;52.234;9.860;2023-12-20T13:18:47;100259.72;;;5.11;86.43
84116;BME280;74211;52.234;9.860;2023-12-20T13:21:17;100246.94;;;5.09;85.83